Time;durP1;ratioP1;P1;durP2;ratioP2;P2;SDS_P1;SDS_P2;PMS_P1;PMS_P2;Temp;Humidity;BMP_temperature;BMP_pressure;BME280_temperature;BME280_humidity;BME280_pressure;Samples;Min_cycle;Max_cycle;Signal;HPM_P1;HPM_P2
2021/07/24 00:01:02;;;;;;;;;;;;;;;17.30;64.99;98147.73;1680390;83;26041;-86
2021/07/24 00:03:28;;;;;;;;;;;;;;;17.18;65.12;98150.81;1680608;83;24495;-86
2021/07/24 00:05:55;;;;;;;;;;;;;;;17.16;65.20;98154.92;1677306;85;20459;-86
2021/07/24 00:08:21;;;;;;;;;;;;;;;17.29;65.36;98155.32;1660661;85;24609;-87
2021/07/24 00:10:50;;;;;;;;;;;;;;;17.31;65.44;98157.33;1667277;85;20231;-87
2021/07/24 00:13:15;;;;;;;;;;;;;;;17.25;65.53;98149.18;1667197;85;26059;-86
2021/07/24 00:15:49;;;;;;;;;;;;;;;17.20;65.61;98152.30;1659205;85;20269;-87
2021/07/24 00:18:15;;;;;;;;;;;;;;;17.23;65.71;98146.72;1677500;84;20285;-87
2021/07/24 00:20:41;;;;;;;;;;;;;;;17.35;65.80;98155.19;1662405;85;20214;-87
2021/07/24 00:23:08;;;;;;;;;;;;;;;17.40;65.86;98155.58;1661903;85;20901;-87
2021/07/24 00:25:40;;;;;;;;;;;;;;;17.44;65.91;98143.20;1664102;85;26022;-87
2021/07/24 00:28:08;;;;;;;;;;;;;;;17.48;65.95;98143.70;1675304;83;24429;-85
2021/07/24 00:30:38;;;;;;;;;;;;;;;17.54;66.03;98144.40;1654223;85;20311;-85
2021/07/24 00:33:05;;;;;;;;;;;;;;;17.54;66.04;98143.08;1652389;85;25426;-85
2021/07/24 00:35:31;;;;;;;;;;;;;;;17.49;66.08;98140.08;1669650;84;22600;-85
2021/07/24 00:38:00;;;;;;;;;;;;;;;17.47;66.15;98139.39;1662295;85;26070;-86
2021/07/24 00:40:28;;;;;;;;;;;;;;;17.48;66.20;98138.41;1653546;85;24705;-85
2021/07/24 00:42:54;;;;;;;;;;;;;;;17.49;66.25;98133.46;1656632;85;20333;-86
2021/07/24 00:45:20;;;;;;;;;;;;;;;17.45;66.27;98137.41;1658628;85;24650;-86
2021/07/24 00:47:49;;;;;;;;;;;;;;;17.39;66.32;98136.23;1659994;85;20234;-86
2021/07/24 00:50:26;;;;;;;;;;;;;;;17.31;66.36;98135.34;1656549;85;26847;-86
2021/07/24 00:52:52;;;;;;;;;;;;;;;17.23;66.43;98136.13;1657828;85;24718;-87
2021/07/24 00:55:19;;;;;;;;;;;;;;;17.20;66.49;98138.24;1657858;85;20473;-87
2021/07/24 00:57:45;;;;;;;;;;;;;;;17.13;66.56;98138.86;1670160;84;24529;-86
2021/07/24 01:00:13;;;;;;;;;;;;;;;17.02;66.61;98137.79;1672808;84;21429;-86
2021/07/24 01:02:39;;;;;;;;;;;;;;;17.00;66.69;98141.59;1673687;84;26821;-87
2021/07/24 01:05:07;;;;;;;;;;;;;;;17.01;66.81;98141.45;1659580;85;20290;-87
2021/07/24 01:07:35;;;;;;;;;;;;;;;16.99;66.87;98133.31;1672877;84;20497;-86
2021/07/24 01:10:01;;;;;;;;;;;;;;;16.96;66.97;98130.50;1670616;84;24718;-87
2021/07/24 01:12:31;;;;;;;;;;;;;;;16.96;67.06;98134.47;1660835;85;20934;-87
2021/07/24 01:14:57;;;;;;;;;;;;;;;16.96;67.16;98129.19;1668789;84;26280;-87
2021/07/24 01:17:25;;;;;;;;;;;;;;;16.97;67.24;98137.43;1655197;85;20320;-87
2021/07/24 01:19:50;;;;;;;;;;;;;;;17.02;67.32;98140.44;1633619;87;20242;-87
2021/07/24 01:22:17;;;;;;;;;;;;;;;17.05;67.36;98134.86;1668318;84;20216;-87
2021/07/24 01:24:43;;;;;;;;;;;;;;;17.11;67.42;98134.73;1655705;85;21943;-87
2021/07/24 01:27:09;;;;;;;;;;;;;;;17.15;67.45;98135.58;1671964;84;21892;-86
2021/07/24 01:29:40;;;;;;;;;;;;;;;17.19;67.49;98131.29;1621530;87;24752;-87
2021/07/24 01:32:06;;;;;;;;;;;;;;;17.23;67.52;98130.84;1646869;86;20274;-87
2021/07/24 01:34:32;;;;;;;;;;;;;;;17.19;67.57;98129.97;1613894;88;25216;-88
2021/07/24 01:36:58;;;;;;;;;;;;;;;17.09;67.58;98128.75;1628460;87;20304;-87
2021/07/24 01:39:30;;;;;;;;;;;;;;;16.91;67.58;98127.47;1632298;86;20988;-87
2021/07/24 01:41:59;;;;;;;;;;;;;;;16.75;67.61;98129.98;1644873;86;24565;-87
2021/07/24 01:44:31;;;;;;;;;;;;;;;16.62;67.66;98136.17;1625090;87;20268;-87
2021/07/24 01:46:57;;;;;;;;;;;;;;;16.52;67.70;98142.00;1624945;87;25335;-87
2021/07/24 01:55:00;;;;;;;;;;;;;;;16.71;67.95;98132.12;1646928;85;24492;-86
2021/07/24 01:57:26;;;;;;;;;;;;;;;16.67;68.00;98131.26;1610670;88;20272;-86
2021/07/24 01:59:54;;;;;;;;;;;;;;;16.69;68.08;98126.14;1644565;86;24661;-86
2021/07/24 02:02:27;;;;;;;;;;;;;;;16.78;68.16;98123.09;1645146;86;22133;-87
2021/07/24 02:04:55;;;;;;;;;;;;;;;16.83;68.19;98127.91;1618216;87;26050;-87
2021/07/24 02:07:21;;;;;;;;;;;;;;;16.75;68.24;98130.51;1648670;86;24515;-86
2021/07/24 02:09:54;;;;;;;;;;;;;;;16.62;68.23;98136.17;1635066;87;21124;-86
2021/07/24 02:12:19;;;;;;;;;;;;;;;16.46;68.27;98128.91;1637617;86;24791;-87
2021/07/24 02:14:46;;;;;;;;;;;;;;;16.33;68.28;98123.16;1637187;87;21914;-86
2021/07/24 02:17:13;;;;;;;;;;;;;;;16.26;68.33;98130.02;1638793;86;26269;-86
2021/07/24 02:19:41;;;;;;;;;;;;;;;16.17;68.37;98129.11;1632693;87;25408;-86
2021/07/24 02:22:15;;;;;;;;;;;;;;;16.12;68.42;98126.09;1636108;86;20262;-86
2021/07/24 02:24:47;;;;;;;;;;;;;;;16.24;68.48;98126.71;1634586;86;24535;-86
2021/07/24 02:27:14;;;;;;;;;;;;;;;16.32;68.55;98124.13;1640218;87;22605;-86
2021/07/24 02:29:40;;;;;;;;;;;;;;;16.23;68.60;98125.87;1673612;85;26111;-86
2021/07/24 02:32:06;;;;;;;;;;;;;;;16.09;68.63;98126.89;1679488;83;20871;-86
2021/07/24 02:34:32;;;;;;;;;;;;;;;16.03;68.68;98127.00;1672346;84;20308;-86
2021/07/24 02:37:01;;;;;;;;;;;;;;;15.94;68.75;98121.27;1673094;85;20780;-86
2021/07/24 02:39:28;;;;;;;;;;;;;;;15.89;68.84;98124.36;1670462;85;22105;-86
2021/07/24 02:41:54;;;;;;;;;;;;;;;15.94;68.92;98123.07;1670808;83;20968;-86
2021/07/24 02:44:20;;;;;;;;;;;;;;;16.09;69.05;98122.93;1670018;84;24441;-85
2021/07/24 02:46:54;;;;;;;;;;;;;;;16.20;69.16;98123.52;1670252;84;20316;-85
2021/07/24 02:49:20;;;;;;;;;;;;;;;16.24;69.26;98119.63;1674047;85;24520;-87
2021/07/24 02:51:46;;;;;;;;;;;;;;;16.31;69.32;98125.11;1672541;85;22741;-87
2021/07/24 02:54:12;;;;;;;;;;;;;;;16.34;69.38;98112.94;1671438;84;20655;-86
2021/07/24 02:56:38;;;;;;;;;;;;;;;16.36;69.45;98120.23;1678340;85;24443;-87
2021/07/24 02:59:04;;;;;;;;;;;;;;;16.37;69.49;98117.91;1669145;85;20917;-87
2021/07/24 03:01:32;;;;;;;;;;;;;;;16.35;69.55;98116.41;1661307;85;20238;-87
2021/07/24 03:03:59;;;;;;;;;;;;;;;16.30;69.60;98115.55;1679732;84;22166;-87
2021/07/24 03:06:25;;;;;;;;;;;;;;;16.19;69.65;98117.09;1668243;85;25981;-87
2021/07/24 03:08:53;;;;;;;;;;;;;;;16.06;69.69;98116.13;1675108;85;20154;-87
2021/07/24 03:11:23;;;;;;;;;;;;;;;15.95;69.73;98110.22;1661709;85;20919;-87
2021/07/24 03:13:48;;;;;;;;;;;;;;;15.89;69.79;98112.97;1662079;85;24562;-87
2021/07/24 03:16:16;;;;;;;;;;;;;;;15.84;69.88;98105.98;1673098;84;22760;-87
2021/07/24 03:18:48;;;;;;;;;;;;;;;15.77;69.96;98112.34;1664514;85;26973;-87
2021/07/24 03:21:19;;;;;;;;;;;;;;;15.69;70.03;98108.30;1656269;85;20527;-86
2021/07/24 03:23:45;;;;;;;;;;;;;;;15.64;70.12;98111.03;1674127;84;20304;-86
2021/07/24 03:26:19;;;;;;;;;;;;;;;15.65;70.21;98116.17;1667202;85;20302;-87
2021/07/24 03:28:47;;;;;;;;;;;;;;;15.79;70.34;98114.84;1671883;84;20164;-86
2021/07/24 03:31:13;;;;;;;;;;;;;;;15.84;70.45;98108.63;1660045;85;26083;-87
2021/07/24 03:33:47;;;;;;;;;;;;;;;15.79;70.54;98100.32;1656324;85;25239;-88
2021/07/24 03:36:22;;;;;;;;;;;;;;;15.75;70.62;98108.20;1677554;84;20204;-86
2021/07/24 03:38:48;;;;;;;;;;;;;;;15.80;70.71;98105.95;1681072;84;24843;-86
2021/07/24 03:41:15;;;;;;;;;;;;;;;15.83;70.81;98109.11;1636390;85;21133;-87
2021/07/24 03:43:44;;;;;;;;;;;;;;;15.83;70.90;98105.64;1646727;85;25998;-87
2021/07/24 03:46:21;;;;;;;;;;;;;;;15.84;71.00;98104.66;1675530;84;25881;-86
2021/07/24 03:48:47;;;;;;;;;;;;;;;15.83;71.10;98105.16;1681814;84;20486;-86
2021/07/24 03:51:18;;;;;;;;;;;;;;;15.83;71.18;98103.83;1681611;83;20243;-86
2021/07/24 03:53:42;;;;;;;;;;;;;;;15.82;71.25;98106.61;1676892;84;22179;-87
2021/07/24 03:56:20;;;;;;;;;;;;;;;15.81;71.30;98104.97;1675636;84;26130;-87
2021/07/24 03:58:49;;;;;;;;;;;;;;;15.88;71.38;98102.90;1655716;85;38503;-86
2021/07/24 04:01:16;;;;;;;;;;;;;;;16.08;71.48;98104.94;1656356;85;20224;-86
2021/07/24 04:03:42;;;;;;;;;;;;;;;16.07;71.55;98107.72;1652923;85;24563;-86
2021/07/24 04:06:15;;;;;;;;;;;;;;;16.10;71.58;98111.37;1657630;85;20702;-86
2021/07/24 04:08:41;;;;;;;;;;;;;;;16.21;71.68;98107.19;1678629;84;26248;-86
2021/07/24 04:11:10;;;;;;;;;;;;;;;16.30;71.74;98107.14;1656320;85;20812;-86
2021/07/24 04:13:39;;;;;;;;;;;;;;;16.43;71.79;98111.19;1662796;85;20173;-86
2021/07/24 04:16:06;;;;;;;;;;;;;;;16.52;71.84;98107.66;1661801;85;24524;-86
2021/07/24 04:18:34;;;;;;;;;;;;;;;16.55;71.86;98108.66;1663188;85;21961;-86
2021/07/24 04:21:02;;;;;;;;;;;;;;;16.63;71.88;98107.45;1660590;85;26813;-86
2021/07/24 04:23:37;;;;;;;;;;;;;;;16.71;71.89;98104.86;1677001;84;25245;-86
2021/07/24 04:26:03;;;;;;;;;;;;;;;16.88;71.91;98108.45;1676129;84;20468;-86
2021/07/24 04:28:29;;;;;;;;;;;;;;;17.01;71.91;98107.56;1665868;85;24546;-85
2021/07/24 04:30:57;;;;;;;;;;;;;;;17.04;71.89;98106.75;1669046;83;20265;-85
2021/07/24 04:33:23;;;;;;;;;;;;;;;16.99;71.87;98109.03;1660638;85;26043;-85
2021/07/24 04:35:57;;;;;;;;;;;;;;;16.91;71.87;98107.64;1677058;84;20243;-85
2021/07/24 04:38:23;;;;;;;;;;;;;;;16.90;71.88;98107.82;1673803;84;20214;-86
2021/07/24 04:40:55;;;;;;;;;;;;;;;16.87;71.89;98108.11;1638057;87;24582;-86
2021/07/24 04:43:24;;;;;;;;;;;;;;;16.84;71.93;98104.47;1667094;84;21842;-86
2021/07/24 04:45:49;;;;;;;;;;;;;;;16.89;71.99;98108.31;1674043;84;20964;-86
2021/07/24 04:48:18;;;;;;;;;;;;;;;16.95;72.07;98105.05;1654700;85;20353;-86
2021/07/24 04:50:48;;;;;;;;;;;;;;;17.08;72.14;98103.30;1664046;85;20208;-86
2021/07/24 04:53:15;;;;;;;;;;;;;;;17.18;72.19;98097.43;1660664;85;24541;-86
2021/07/24 04:55:41;;;;;;;;;;;;;;;17.24;72.27;98100.74;1668848;84;22077;-86
2021/07/24 04:58:10;;;;;;;;;;;;;;;17.33;72.33;98101.63;1676365;83;26293;-86
2021/07/24 05:00:38;;;;;;;;;;;;;;;17.34;72.35;98098.84;1676541;83;24518;-86
2021/07/24 05:03:04;;;;;;;;;;;;;;;17.36;72.38;98098.66;1660131;85;20260;-85
2021/07/24 05:05:31;;;;;;;;;;;;;;;17.39;72.43;98099.19;1653496;85;25198;-86
2021/07/24 05:07:57;;;;;;;;;;;;;;;17.40;72.47;98102.15;1673833;84;22761;-86
2021/07/24 05:10:23;;;;;;;;;;;;;;;17.50;72.56;98108.67;1671458;84;20971;-85
2021/07/24 05:12:49;;;;;;;;;;;;;;;17.55;72.61;98097.11;1657973;85;24295;-85
2021/07/24 05:15:15;;;;;;;;;;;;;;;17.58;72.66;98102.91;1659690;85;20257;-85
2021/07/24 05:17:47;;;;;;;;;;;;;;;17.67;72.70;98102.49;1673937;84;20822;-86
2021/07/24 05:20:13;;;;;;;;;;;;;;;17.76;72.75;98104.66;1658086;85;22103;-87
2021/07/24 05:22:38;;;;;;;;;;;;;;;17.91;72.85;98107.85;1674872;83;20975;-87
2021/07/24 05:25:05;;;;;;;;;;;;;;;17.97;72.88;98099.27;1674896;84;20895;-86
2021/07/24 05:27:30;;;;;;;;;;;;;;;18.11;72.93;98101.77;1627022;86;20369;-87
2021/07/24 05:29:58;;;;;;;;;;;;;;;18.23;72.99;98103.12;1665142;84;25402;-86
2021/07/24 05:32:24;;;;;;;;;;;;;;;18.34;73.02;98101.97;1655487;85;21981;-86
2021/07/24 05:34:50;;;;;;;;;;;;;;;18.38;73.02;98096.17;1673325;84;21026;-86
2021/07/24 05:37:17;;;;;;;;;;;;;;;18.41;72.99;98097.69;1677490;84;20264;-86
2021/07/24 05:39:43;;;;;;;;;;;;;;;18.39;72.95;98096.52;1631674;86;20242;-86
2021/07/24 05:42:09;;;;;;;;;;;;;;;18.38;72.90;98095.37;1660453;85;20742;-86
2021/07/24 05:44:35;;;;;;;;;;;;;;;18.43;72.86;98093.06;1676219;84;20802;-86
2021/07/24 05:47:02;;;;;;;;;;;;;;;18.52;72.88;98091.23;1670170;84;20383;-86
2021/07/24 05:49:28;;;;;;;;;;;;;;;18.65;72.93;98096.91;1657534;85;24450;-86
2021/07/24 05:51:55;;;;;;;;;;;;;;;18.74;72.94;98088.78;1645625;85;20239;-87
2021/07/24 05:54:23;;;;;;;;;;;;;;;18.82;72.92;98088.45;1659292;84;24650;-86
2021/07/24 05:56:50;;;;;;;;;;;;;;;18.86;72.89;98093.74;1670878;84;22032;-86
2021/07/24 05:59:19;;;;;;;;;;;;;;;18.84;72.82;98093.90;1654156;85;26055;-86
2021/07/24 06:01:47;;;;;;;;;;;;;;;18.82;72.75;98090.58;1659301;85;24322;-86
2021/07/24 06:04:13;;;;;;;;;;;;;;;18.89;72.69;98095.55;1650763;85;20153;-86
2021/07/24 06:06:39;;;;;;;;;;;;;;;18.94;72.67;98102.50;1665138;83;20220;-86
2021/07/24 06:09:05;;;;;;;;;;;;;;;19.05;72.62;98097.34;1673185;84;20221;-86
2021/07/24 06:11:38;;;;;;;;;;;;;;;19.08;72.59;98103.66;1655177;85;21201;-86
2021/07/24 06:14:04;;;;;;;;;;;;;;;19.04;72.49;98097.84;1633106;85;24483;-87
2021/07/24 06:16:30;;;;;;;;;;;;;;;19.01;72.39;98096.87;1669794;84;20468;-86
2021/07/24 06:18:59;;;;;;;;;;;;;;;19.09;72.33;98102.67;1678808;84;20284;-85
2021/07/24 06:21:26;;;;;;;;;;;;;;;19.16;72.31;98106.28;1652513;85;22136;-86
2021/07/24 06:23:51;;;;;;;;;;;;;;;19.25;72.31;98099.15;1663167;85;26046;-86
2021/07/24 06:26:17;;;;;;;;;;;;;;;19.34;72.32;98101.59;1672092;84;20236;-86
2021/07/24 06:28:44;;;;;;;;;;;;;;;19.39;72.24;98099.27;1673387;84;20898;-86
2021/07/24 06:31:12;;;;;;;;;;;;;;;19.46;72.17;98102.09;1665335;85;24740;-87
2021/07/24 06:33:38;;;;;;;;;;;;;;;19.52;72.11;98102.25;1625978;88;22097;-87
2021/07/24 06:36:04;;;;;;;;;;;;;;;19.62;72.05;98101.55;1607588;88;20975;-87
2021/07/24 06:38:30;;;;;;;;;;;;;;;19.76;72.03;98099.14;1618064;88;24298;-87
2021/07/24 06:40:56;;;;;;;;;;;;;;;19.88;71.96;98095.11;1637456;86;20315;-87
2021/07/24 06:43:22;;;;;;;;;;;;;;;19.97;71.91;98102.85;1622792;87;25201;-87
2021/07/24 06:45:58;;;;;;;;;;;;;;;20.12;71.83;98104.28;1622554;87;20228;-87
2021/07/24 06:48:24;;;;;;;;;;;;;;;20.20;71.75;98103.39;1620385;87;26244;-87
2021/07/24 06:50:53;;;;;;;;;;;;;;;20.24;71.63;98100.20;1622129;87;20253;-87
2021/07/24 06:53:21;;;;;;;;;;;;;;;20.33;71.51;98101.85;1626674;86;20147;-87
2021/07/24 06:55:51;;;;;;;;;;;;;;;20.49;71.46;98106.22;1619763;86;24104;-87
2021/07/24 06:58:17;;;;;;;;;;;;;;;20.62;71.38;98101.65;1619997;87;22650;-87
2021/07/24 07:00:43;;;;;;;;;;;;;;;20.75;71.28;98096.03;1620838;87;21843;-88
2021/07/24 07:03:09;;;;;;;;;;;;;;;20.88;71.18;98096.77;1625734;87;20281;-85
2021/07/24 07:05:35;;;;;;;;;;;;;;;20.98;71.05;98093.84;1630428;87;20294;-85
2021/07/24 07:08:04;;;;;;;;;;;;;;;21.05;70.92;98102.26;1614292;88;20380;-85
2021/07/24 07:10:29;;;;;;;;;;;;;;;21.13;70.79;98097.34;1617887;88;22103;-85
2021/07/24 07:12:58;;;;;;;;;;;;;;;21.15;70.66;98094.86;1599665;88;20865;-85
2021/07/24 07:15:28;;;;;;;;;;;;;;;21.17;70.49;98094.66;1615126;88;24525;-85
2021/07/24 07:17:56;;;;;;;;;;;;;;;21.29;70.36;98094.03;1582880;88;20198;-85
2021/07/24 07:20:22;;;;;;;;;;;;;;;21.30;70.18;98093.53;1614770;88;24512;-85
2021/07/24 07:22:51;;;;;;;;;;;;;;;21.29;69.98;98090.05;1614891;87;20260;-85
2021/07/24 07:25:17;;;;;;;;;;;;;;;21.31;69.83;98089.87;1615095;87;26015;-87
2021/07/24 07:27:44;;;;;;;;;;;;;;;21.32;69.69;98090.20;1613935;87;24612;-86
2021/07/24 07:30:12;;;;;;;;;;;;;;;21.33;69.53;98089.16;1633296;85;20681;-86
2021/07/24 07:32:38;;;;;;;;;;;;;;;21.35;69.32;98090.32;1678599;84;24718;-86
2021/07/24 07:35:04;;;;;;;;;;;;;;;21.37;69.18;98092.30;1669048;85;20386;-87
2021/07/24 07:37:30;;;;;;;;;;;;;;;21.45;69.07;98089.53;1632681;85;25990;-86
2021/07/24 07:39:56;;;;;;;;;;;;;;;21.50;68.93;98092.47;1646319;86;20333;-86
2021/07/24 07:42:24;;;;;;;;;;;;;;;21.54;68.74;98090.61;1668683;85;20155;-85
2021/07/24 07:44:50;;;;;;;;;;;;;;;21.58;68.54;98088.39;1672364;84;24773;-85
2021/07/24 07:47:20;;;;;;;;;;;;;;;21.70;68.44;98092.24;1634571;86;20311;-85
2021/07/24 07:49:43;;;;;;;;;;;;;;;21.80;68.29;98093.28;1649226;85;25978;-85
2021/07/24 07:52:15;;;;;;;;;;;;;;;21.93;68.07;98091.59;1660556;84;25069;-85
2021/07/24 07:54:41;;;;;;;;;;;;;;;22.06;67.96;98094.45;1660984;85;20351;-86
2021/07/24 07:57:09;;;;;;;;;;;;;;;22.14;67.79;98095.36;1672869;84;20740;-85
2021/07/24 07:59:34;;;;;;;;;;;;;;;22.20;67.62;98082.11;1655349;84;22083;-85
2021/07/24 08:02:00;;;;;;;;;;;;;;;22.28;67.45;98078.47;1652817;85;20980;-86
2021/07/24 08:04:32;;;;;;;;;;;;;;;22.38;67.32;98077.14;1651839;85;21151;-85
2021/07/24 08:07:04;;;;;;;;;;;;;;;22.44;67.06;98079.55;1654138;85;20298;-85
2021/07/24 08:09:31;;;;;;;;;;;;;;;22.56;66.82;98083.37;1672103;84;25442;-85
2021/07/24 08:12:01;;;;;;;;;;;;;;;22.67;66.61;98079.36;1653895;85;22176;-85
2021/07/24 08:14:27;;;;;;;;;;;;;;;22.76;66.41;98080.39;1669458;84;21120;-86
2021/07/24 08:16:59;;;;;;;;;;;;;;;22.84;66.19;98075.44;1668380;85;24569;-86
2021/07/24 08:19:26;;;;;;;;;;;;;;;22.93;65.91;98076.42;1631244;86;20176;-85
2021/07/24 08:21:55;;;;;;;;;;;;;;;23.03;65.69;98080.59;1648217;85;24681;-85
2021/07/24 08:24:21;;;;;;;;;;;;;;;23.16;65.46;98084.19;1654127;85;22144;-86
2021/07/24 08:26:50;;;;;;;;;;;;;;;23.26;65.18;98078.49;1673308;83;20846;-85
2021/07/24 08:29:22;;;;;;;;;;;;;;;23.29;64.86;98074.11;1669339;85;24522;-85
2021/07/24 08:31:47;;;;;;;;;;;;;;;23.33;64.48;98070.02;1641631;85;20239;-85
2021/07/24 08:34:13;;;;;;;;;;;;;;;23.45;64.28;98064.95;1658558;86;20226;-85
2021/07/24 08:36:45;;;;;;;;;;;;;;;23.57;64.04;98069.55;1658383;86;20311;-86
2021/07/24 08:39:11;;;;;;;;;;;;;;;23.64;63.79;98066.91;1659628;86;26769;-86
2021/07/24 08:41:40;;;;;;;;;;;;;;;23.71;63.50;98072.61;1661964;86;20241;-85
2021/07/24 08:44:10;;;;;;;;;;;;;;;23.86;63.30;98074.30;1659861;85;20180;-85
2021/07/24 08:46:38;;;;;;;;;;;;;;;23.97;63.09;98072.39;1652056;86;24543;-85
2021/07/24 08:49:04;;;;;;;;;;;;;;;24.06;62.75;98073.84;1672440;84;22099;-85
2021/07/24 08:51:35;;;;;;;;;;;;;;;24.14;62.35;98069.16;1674529;84;21755;-86
2021/07/24 08:54:04;;;;;;;;;;;;;;;24.16;61.81;98067.63;1676779;84;24594;-85
2021/07/24 08:56:40;;;;;;;;;;;;;;;24.15;61.34;98064.64;1647417;85;20477;-85
2021/07/24 08:59:08;;;;;;;;;;;;;;;24.16;60.95;98065.78;1677148;85;25369;-85
2021/07/24 09:01:36;;;;;;;;;;;;;;;24.24;60.68;98065.30;1674468;83;22006;-85
2021/07/24 09:04:04;;;;;;;;;;;;;;;24.30;60.38;98057.29;1676514;83;26024;-85
2021/07/24 09:06:31;;;;;;;;;;;;;;;24.43;60.24;98054.65;1681680;84;24552;-85
2021/07/24 09:08:57;;;;;;;;;;;;;;;24.51;60.09;98054.44;1665910;85;20316;-85
2021/07/24 09:11:22;;;;;;;;;;;;;;;24.50;59.73;98051.44;1682371;84;20791;-86
2021/07/24 09:13:54;;;;;;;;;;;;;;;24.51;59.47;98051.76;1649164;84;22195;-85
2021/07/24 09:16:22;;;;;;;;;;;;;;;24.55;59.24;98050.31;1638776;85;26234;-86
2021/07/24 09:18:56;;;;;;;;;;;;;;;24.60;59.01;98047.84;1660721;86;24490;-86
2021/07/24 09:21:25;;;;;;;;;;;;;;;24.69;58.87;98046.31;1683607;83;20264;-85
2021/07/24 09:23:51;;;;;;;;;;;;;;;24.75;58.67;98045.49;1676155;84;24548;-86
2021/07/24 09:26:28;;;;;;;;;;;;;;;24.86;58.57;98041.68;1638749;86;20360;-86
2021/07/24 09:28:56;;;;;;;;;;;;;;;24.97;58.46;98039.75;1649460;85;26018;-86
2021/07/24 09:31:21;;;;;;;;;;;;;;;25.09;58.27;98039.94;1670489;84;24368;-86
2021/07/24 09:33:53;;;;;;;;;;;;;;;25.18;58.07;98034.66;1664211;85;20391;-86
2021/07/24 09:36:31;;;;;;;;;;;;;;;25.22;57.81;98034.53;1671022;84;24645;-85
2021/07/24 09:39:11;;;;;;;;;;;;;;;25.36;57.81;98036.16;1656779;85;22258;-85
2021/07/24 09:41:44;;;;;;;;;;;;;;;25.54;57.70;98029.28;1648939;85;21145;-85
2021/07/24 09:44:10;;;;;;;;;;;;;;;25.72;57.62;98020.07;1647648;85;25651;-85
2021/07/24 09:46:37;;;;;;;;;;;;;;;25.88;57.47;98027.63;1674932;84;20178;-85
2021/07/24 09:49:11;;;;;;;;;;;;;;;25.96;57.19;98022.54;1654161;85;24734;-85
2021/07/24 09:51:40;;;;;;;;;;;;;;;26.00;56.88;98017.87;1676107;84;20236;-85
2021/07/24 09:54:08;;;;;;;;;;;;;;;26.14;56.65;98015.91;1652740;85;26636;-85
2021/07/24 09:56:42;;;;;;;;;;;;;;;26.15;56.28;98011.68;1676682;84;24511;-85
2021/07/24 09:59:14;;;;;;;;;;;;;;;26.17;55.94;98015.50;1652746;85;20538;-85
2021/07/24 10:01:41;;;;;;;;;;;;;;;26.33;55.84;98002.10;1634765;86;24519;-85
2021/07/24 10:04:07;;;;;;;;;;;;;;;26.46;55.65;98005.49;1664342;85;21958;-85
2021/07/24 10:06:34;;;;;;;;;;;;;;;26.62;55.54;98009.52;1670046;84;20911;-85
2021/07/24 10:09:01;;;;;;;;;;;;;;;26.70;55.42;98016.46;1672605;83;25237;-85
2021/07/24 10:11:30;;;;;;;;;;;;;;;26.68;55.19;98016.67;1636117;86;20483;-85
2021/07/24 10:13:58;;;;;;;;;;;;;;;26.62;54.83;98010.86;1652344;85;24589;-85
2021/07/24 10:16:25;;;;;;;;;;;;;;;26.61;54.60;98001.98;1653272;85;22096;-86
2021/07/24 10:18:54;;;;;;;;;;;;;;;26.64;54.34;98004.22;1678250;84;26678;-86
2021/07/24 10:21:22;;;;;;;;;;;;;;;26.59;54.11;98004.06;1651476;85;25104;-86
2021/07/24 10:23:54;;;;;;;;;;;;;;;26.62;53.90;98011.66;1637103;86;20214;-86
2021/07/24 10:26:25;;;;;;;;;;;;;;;26.54;53.48;98005.75;1662032;86;25231;-85
2021/07/24 10:29:04;;;;;;;;;;;;;;;26.57;53.22;98003.96;1666967;85;21947;-85
2021/07/24 10:31:42;;;;;;;;;;;;;;;26.57;52.97;98002.62;1667664;84;26000;-85
2021/07/24 10:34:10;;;;;;;;;;;;;;;26.68;52.93;98009.13;1673796;84;24642;-86
2021/07/24 10:36:39;;;;;;;;;;;;;;;26.72;52.78;98013.88;1635854;86;20175;-86
2021/07/24 10:39:07;;;;;;;;;;;;;;;26.66;52.46;98010.72;1666400;84;24548;-86
2021/07/24 10:41:34;;;;;;;;;;;;;;;26.50;52.09;98011.27;1676954;84;22010;-86
2021/07/24 10:44:03;;;;;;;;;;;;;;;26.19;51.60;98016.08;1664528;85;26156;-86
2021/07/24 10:46:45;;;;;;;;;;;;;;;25.97;51.33;98009.41;1668568;84;24405;-86
2021/07/24 10:49:23;;;;;;;;;;;;;;;25.89;51.15;98012.36;1647495;84;20785;-86
2021/07/24 10:51:59;;;;;;;;;;;;;;;26.06;51.26;98010.30;1665658;85;24525;-86
2021/07/24 10:54:27;;;;;;;;;;;;;;;26.30;51.27;98008.71;1672999;84;23027;-86
2021/07/24 10:56:53;;;;;;;;;;;;;;;26.52;51.29;98002.45;1675289;84;25574;-86
2021/07/24 10:59:29;;;;;;;;;;;;;;;26.69;51.30;98004.07;1669452;85;24632;-86
2021/07/24 11:02:00;;;;;;;;;;;;;;;26.79;51.13;97996.33;1672150;84;20322;-86
2021/07/24 11:04:38;;;;;;;;;;;;;;;26.92;51.00;97997.08;1676001;85;24595;-86
2021/07/24 11:07:24;;;;;;;;;;;;;;;26.99;50.94;97996.50;1660766;85;21888;-86
2021/07/24 11:09:56;;;;;;;;;;;;;;;26.95;50.68;97995.27;1670126;84;26033;-86
2021/07/24 11:12:38;;;;;;;;;;;;;;;26.91;50.49;97997.29;1673631;84;25246;-85
2021/07/24 11:15:05;;;;;;;;;;;;;;;26.93;50.35;98000.06;1679340;85;20318;-85
2021/07/24 11:17:35;;;;;;;;;;;;;;;27.04;50.23;97989.94;1669976;84;25382;-85
2021/07/24 11:20:05;;;;;;;;;;;;;;;27.19;50.13;97988.22;1680352;84;22054;-85
2021/07/24 11:22:32;;;;;;;;;;;;;;;27.27;50.03;97984.42;1674056;84;25977;-85
2021/07/24 11:25:00;;;;;;;;;;;;;;;27.37;49.98;97986.88;1674950;85;24596;-85
2021/07/24 11:27:28;;;;;;;;;;;;;;;27.49;49.79;97985.61;1669622;84;20240;-85
2021/07/24 11:29:56;;;;;;;;;;;;;;;27.60;49.71;97982.71;1671683;84;24790;-85
2021/07/24 11:32:26;;;;;;;;;;;;;;;27.69;49.71;97980.81;1672448;85;22072;-85
2021/07/24 11:34:59;;;;;;;;;;;;;;;27.78;49.59;97978.62;1658842;85;26029;-85
2021/07/24 11:37:40;;;;;;;;;;;;;;;27.82;49.33;97975.80;1662404;85;24428;-86
2021/07/24 11:40:07;;;;;;;;;;;;;;;27.89;49.19;97975.16;1664621;85;20261;-85
2021/07/24 11:42:33;;;;;;;;;;;;;;;27.99;49.17;97974.59;1659930;85;25629;-85
2021/07/24 11:45:05;;;;;;;;;;;;;;;28.09;49.10;97978.41;1663342;85;22711;-85
2021/07/24 11:47:31;;;;;;;;;;;;;;;28.09;48.78;97977.58;1663271;85;26179;-85
2021/07/24 11:50:15;;;;;;;;;;;;;;;28.06;48.49;97969.42;1665230;84;20851;-85
2021/07/24 11:52:51;;;;;;;;;;;;;;;28.18;48.50;97972.19;1665903;85;20208;-85
2021/07/24 11:55:30;;;;;;;;;;;;;;;28.25;48.37;97968.88;1664847;85;24599;-85
2021/07/24 11:58:03;;;;;;;;;;;;;;;28.31;48.31;97958.53;1668166;85;22848;-85
2021/07/24 12:00:30;;;;;;;;;;;;;;;28.37;48.10;97956.78;1664717;84;26057;-85
2021/07/24 12:02:57;;;;;;;;;;;;;;;28.38;47.73;97961.09;1669350;85;24631;-86
2021/07/24 12:05:26;;;;;;;;;;;;;;;28.31;47.44;97959.05;1665220;85;20243;-85
2021/07/24 12:07:55;;;;;;;;;;;;;;;28.34;47.28;97955.88;1664973;85;24667;-85
2021/07/24 12:10:21;;;;;;;;;;;;;;;28.42;47.18;97959.05;1661939;85;22056;-85
2021/07/24 12:12:47;;;;;;;;;;;;;;;28.45;46.97;97956.42;1667604;85;21152;-85
2021/07/24 12:15:13;;;;;;;;;;;;;;;28.37;46.63;97954.88;1661560;84;24469;-85
2021/07/24 12:17:39;;;;;;;;;;;;;;;28.42;46.52;97952.87;1664868;85;20245;-85
2021/07/24 12:20:07;;;;;;;;;;;;;;;28.45;46.23;97951.86;1666452;84;20215;-85
2021/07/24 12:22:33;;;;;;;;;;;;;;;28.34;45.82;97949.98;1664266;85;21955;-85
2021/07/24 12:25:12;;;;;;;;;;;;;;;28.33;45.62;97948.86;1666072;85;21022;-85
2021/07/24 12:27:53;;;;;;;;;;;;;;;28.40;45.47;97953.09;1658038;84;25511;-85
2021/07/24 12:30:21;;;;;;;;;;;;;;;28.52;45.29;97948.55;1666812;84;20597;-85
2021/07/24 12:32:53;;;;;;;;;;;;;;;28.66;45.25;97958.02;1633218;84;25210;-85
2021/07/24 12:35:21;;;;;;;;;;;;;;;28.77;45.16;97950.20;1630144;85;22113;-85
2021/07/24 12:37:49;;;;;;;;;;;;;;;28.71;44.79;97948.70;1626265;87;26700;-85
2021/07/24 12:40:19;;;;;;;;;;;;;;;28.56;44.42;97944.84;1624934;86;24663;-85
2021/07/24 12:42:46;;;;;;;;;;;;;;;28.36;44.04;97946.54;1624199;87;20301;-85
2021/07/24 12:45:22;;;;;;;;;;;;;;;28.19;43.72;97946.39;1623624;86;24710;-85
2021/07/24 12:47:48;;;;;;;;;;;;;;;28.02;43.54;97943.22;1604788;87;22881;-85
2021/07/24 12:50:15;;;;;;;;;;;;;;;27.99;43.44;97947.17;1635041;86;21664;-87
2021/07/24 12:52:45;;;;;;;;;;;;;;;27.92;43.39;97942.96;1622039;87;24535;-87
2021/07/24 12:55:14;;;;;;;;;;;;;;;27.83;43.35;97941.10;1621781;87;20562;-85
2021/07/24 12:57:41;;;;;;;;;;;;;;;27.78;43.38;97945.83;1634892;86;24522;-85
2021/07/24 13:00:08;;;;;;;;;;;;;;;27.79;43.38;97943.95;1677593;84;22698;-85